sensor_id;sensor_type;location;lat;lon;timestamp;P1;durP1;ratioP1;P2;durP2;ratioP2
37593;SDS011;23441;50.856;6.076;2023-07-09T00:02:16;15.75;;;9.27;;
37593;SDS011;23441;50.856;6.076;2023-07-09T00:04:42;13.93;;;8.93;;
37593;SDS011;23441;50.856;6.076;2023-07-09T00:07:13;15.75;;;9.82;;
37593;SDS011;23441;50.856;6.076;2023-07-09T00:09:53;17.90;;;9.73;;
37593;SDS011;23441;50.856;6.076;2023-07-09T00:12:19;14.77;;;9.77;;
37593;SDS011;23441;50.856;6.076;2023-07-09T00:14:45;16.15;;;9.70;;
37593;SDS011;23441;50.856;6.076;2023-07-09T00:17:11;16.58;;;9.65;;
37593;SDS011;23441;50.856;6.076;2023-07-09T00:19:53;15.57;;;9.82;;
37593;SDS011;23441;50.856;6.076;2023-07-09T00:22:19;14.57;;;9.88;;
37593;SDS011;23441;50.856;6.076;2023-07-09T00:24:46;18.08;;;9.35;;
37593;SDS011;23441;50.856;6.076;2023-07-09T00:27:16;15.02;;;9.18;;
37593;SDS011;23441;50.856;6.076;2023-07-09T00:29:44;17.58;;;10.40;;
37593;SDS011;23441;50.856;6.076;2023-07-09T00:32:11;15.65;;;9.60;;
37593;SDS011;23441;50.856;6.076;2023-07-09T00:34:40;20.25;;;9.30;;
37593;SDS011;23441;50.856;6.076;2023-07-09T00:37:12;15.70;;;10.48;;
37593;SDS011;23441;50.856;6.076;2023-07-09T00:39:37;13.02;;;9.05;;
37593;SDS011;23441;50.856;6.076;2023-07-09T00:42:05;16.80;;;9.57;;
37593;SDS011;23441;50.856;6.076;2023-07-09T00:44:36;13.07;;;8.88;;
37593;SDS011;23441;50.856;6.076;2023-07-09T00:50:31;13.88;;;9.10;;
37593;SDS011;23441;50.856;6.076;2023-07-09T00:53:20;14.90;;;9.75;;
37593;SDS011;23441;50.856;6.076;2023-07-09T00:56:04;13.98;;;8.95;;
37593;SDS011;23441;50.856;6.076;2023-07-09T00:58:32;13.55;;;8.38;;
37593;SDS011;23441;50.856;6.076;2023-07-09T01:01:00;19.85;;;9.43;;
37593;SDS011;23441;50.856;6.076;2023-07-09T01:03:34;14.07;;;9.20;;
37593;SDS011;23441;50.856;6.076;2023-07-09T01:06:02;13.02;;;8.25;;
37593;SDS011;23441;50.856;6.076;2023-07-09T01:08:31;16.75;;;10.05;;
37593;SDS011;23441;50.856;6.076;2023-07-09T01:10:59;18.60;;;10.07;;
37593;SDS011;23441;50.856;6.076;2023-07-09T01:13:26;14.73;;;9.30;;
37593;SDS011;23441;50.856;6.076;2023-07-09T01:15:53;14.40;;;8.75;;
37593;SDS011;23441;50.856;6.076;2023-07-09T01:18:20;14.20;;;8.43;;
37593;SDS011;23441;50.856;6.076;2023-07-09T01:20:46;13.57;;;9.00;;
37593;SDS011;23441;50.856;6.076;2023-07-09T01:23:12;14.73;;;9.35;;
37593;SDS011;23441;50.856;6.076;2023-07-09T01:25:41;15.05;;;9.00;;
37593;SDS011;23441;50.856;6.076;2023-07-09T01:28:17;14.13;;;9.13;;
37593;SDS011;23441;50.856;6.076;2023-07-09T01:30:45;13.23;;;8.50;;
37593;SDS011;23441;50.856;6.076;2023-07-09T01:33:18;12.75;;;8.70;;
37593;SDS011;23441;50.856;6.076;2023-07-09T01:35:44;16.63;;;9.25;;
37593;SDS011;23441;50.856;6.076;2023-07-09T01:38:10;13.70;;;9.15;;
37593;SDS011;23441;50.856;6.076;2023-07-09T01:40:36;11.20;;;8.43;;
37593;SDS011;23441;50.856;6.076;2023-07-09T01:43:03;17.48;;;9.32;;
37593;SDS011;23441;50.856;6.076;2023-07-09T01:45:33;15.32;;;8.40;;
37593;SDS011;23441;50.856;6.076;2023-07-09T01:47:59;12.63;;;8.75;;
37593;SDS011;23441;50.856;6.076;2023-07-09T01:50:27;14.27;;;8.68;;
37593;SDS011;23441;50.856;6.076;2023-07-09T01:52:53;14.15;;;9.48;;
37593;SDS011;23441;50.856;6.076;2023-07-09T01:55:19;14.70;;;8.65;;
37593;SDS011;23441;50.856;6.076;2023-07-09T01:57:45;14.77;;;8.50;;
37593;SDS011;23441;50.856;6.076;2023-07-09T02:00:12;17.70;;;9.45;;
37593;SDS011;23441;50.856;6.076;2023-07-09T02:02:40;14.90;;;9.48;;
37593;SDS011;23441;50.856;6.076;2023-07-09T02:05:11;14.48;;;9.10;;
37593;SDS011;23441;50.856;6.076;2023-07-09T02:07:39;13.32;;;8.25;;
37593;SDS011;23441;50.856;6.076;2023-07-09T02:10:06;14.57;;;8.85;;
37593;SDS011;23441;50.856;6.076;2023-07-09T02:12:32;14.63;;;8.95;;
37593;SDS011;23441;50.856;6.076;2023-07-09T02:14:58;16.92;;;9.20;;
37593;SDS011;23441;50.856;6.076;2023-07-09T02:17:23;11.23;;;8.52;;
37593;SDS011;23441;50.856;6.076;2023-07-09T02:19:49;13.98;;;8.93;;
37593;SDS011;23441;50.856;6.076;2023-07-09T02:22:14;12.95;;;8.32;;
37593;SDS011;23441;50.856;6.076;2023-07-09T02:24:40;14.75;;;8.43;;
37593;SDS011;23441;50.856;6.076;2023-07-09T02:27:06;11.25;;;7.57;;
37593;SDS011;23441;50.856;6.076;2023-07-09T02:29:34;14.52;;;8.15;;
37593;SDS011;23441;50.856;6.076;2023-07-09T02:32:00;14.45;;;8.50;;
37593;SDS011;23441;50.856;6.076;2023-07-09T02:34:26;16.05;;;8.70;;
37593;SDS011;23441;50.856;6.076;2023-07-09T02:36:53;15.32;;;9.10;;
37593;SDS011;23441;50.856;6.076;2023-07-09T02:39:21;14.68;;;8.75;;
37593;SDS011;23441;50.856;6.076;2023-07-09T02:41:47;11.48;;;7.90;;
37593;SDS011;23441;50.856;6.076;2023-07-09T02:44:13;10.98;;;8.05;;
37593;SDS011;23441;50.856;6.076;2023-07-09T02:46:39;16.42;;;8.68;;
37593;SDS011;23441;50.856;6.076;2023-07-09T02:49:05;14.70;;;8.35;;
37593;SDS011;23441;50.856;6.076;2023-07-09T02:51:32;14.45;;;8.85;;
37593;SDS011;23441;50.856;6.076;2023-07-09T02:53:59;13.90;;;8.00;;
37593;SDS011;23441;50.856;6.076;2023-07-09T02:56:25;12.50;;;7.85;;
37593;SDS011;23441;50.856;6.076;2023-07-09T02:58:51;12.38;;;8.30;;
37593;SDS011;23441;50.856;6.076;2023-07-09T03:01:18;13.23;;;7.68;;
37593;SDS011;23441;50.856;6.076;2023-07-09T03:03:56;12.35;;;8.32;;
37593;SDS011;23441;50.856;6.076;2023-07-09T03:06:24;11.98;;;8.20;;
37593;SDS011;23441;50.856;6.076;2023-07-09T03:08:51;12.23;;;7.82;;
37593;SDS011;23441;50.856;6.076;2023-07-09T03:11:17;12.23;;;8.18;;
37593;SDS011;23441;50.856;6.076;2023-07-09T03:13:43;14.07;;;8.57;;
37593;SDS011;23441;50.856;6.076;2023-07-09T03:16:09;13.95;;;8.25;;
37593;SDS011;23441;50.856;6.076;2023-07-09T03:18:34;11.07;;;7.88;;
37593;SDS011;23441;50.856;6.076;2023-07-09T03:21:00;12.02;;;7.55;;
37593;SDS011;23441;50.856;6.076;2023-07-09T03:23:26;12.23;;;8.63;;
37593;SDS011;23441;50.856;6.076;2023-07-09T03:25:52;12.25;;;8.02;;
37593;SDS011;23441;50.856;6.076;2023-07-09T03:28:17;14.80;;;9.07;;
37593;SDS011;23441;50.856;6.076;2023-07-09T03:30:44;14.10;;;8.55;;
37593;SDS011;23441;50.856;6.076;2023-07-09T03:33:11;18.13;;;8.68;;
37593;SDS011;23441;50.856;6.076;2023-07-09T03:35:38;12.60;;;8.20;;
37593;SDS011;23441;50.856;6.076;2023-07-09T03:38:07;15.63;;;8.25;;
37593;SDS011;23441;50.856;6.076;2023-07-09T03:40:35;11.20;;;7.95;;
37593;SDS011;23441;50.856;6.076;2023-07-09T03:43:02;10.77;;;7.85;;
37593;SDS011;23441;50.856;6.076;2023-07-09T03:45:28;20.42;;;8.18;;
37593;SDS011;23441;50.856;6.076;2023-07-09T03:47:54;16.92;;;8.25;;
37593;SDS011;23441;50.856;6.076;2023-07-09T03:50:21;9.20;;;7.05;;
37593;SDS011;23441;50.856;6.076;2023-07-09T03:52:47;12.52;;;7.18;;
37593;SDS011;23441;50.856;6.076;2023-07-09T03:55:12;12.85;;;6.97;;
37593;SDS011;23441;50.856;6.076;2023-07-09T03:57:39;14.25;;;7.25;;
37593;SDS011;23441;50.856;6.076;2023-07-09T04:00:05;14.30;;;7.13;;
37593;SDS011;23441;50.856;6.076;2023-07-09T04:02:35;18.60;;;7.10;;
37593;SDS011;23441;50.856;6.076;2023-07-09T04:05:01;13.80;;;7.95;;
37593;SDS011;23441;50.856;6.076;2023-07-09T04:07:26;11.18;;;7.70;;
37593;SDS011;23441;50.856;6.076;2023-07-09T04:09:52;11.20;;;7.38;;
37593;SDS011;23441;50.856;6.076;2023-07-09T04:12:17;10.40;;;6.70;;
37593;SDS011;23441;50.856;6.076;2023-07-09T04:14:43;13.07;;;7.53;;
37593;SDS011;23441;50.856;6.076;2023-07-09T04:17:09;9.40;;;6.85;;
37593;SDS011;23441;50.856;6.076;2023-07-09T04:19:34;11.55;;;7.03;;
37593;SDS011;23441;50.856;6.076;2023-07-09T04:22:00;13.82;;;7.88;;
37593;SDS011;23441;50.856;6.076;2023-07-09T04:24:25;11.55;;;7.60;;
37593;SDS011;23441;50.856;6.076;2023-07-09T04:26:52;13.55;;;7.90;;
37593;SDS011;23441;50.856;6.076;2023-07-09T04:29:21;11.18;;;7.50;;
37593;SDS011;23441;50.856;6.076;2023-07-09T04:31:47;10.73;;;7.20;;
37593;SDS011;23441;50.856;6.076;2023-07-09T04:34:13;10.25;;;7.45;;
37593;SDS011;23441;50.856;6.076;2023-07-09T04:36:39;10.95;;;7.72;;
37593;SDS011;23441;50.856;6.076;2023-07-09T04:39:05;13.98;;;7.47;;
37593;SDS011;23441;50.856;6.076;2023-07-09T04:41:31;11.07;;;7.20;;
37593;SDS011;23441;50.856;6.076;2023-07-09T04:43:56;11.10;;;7.70;;
37593;SDS011;23441;50.856;6.076;2023-07-09T04:46:22;10.70;;;7.43;;
37593;SDS011;23441;50.856;6.076;2023-07-09T04:48:48;11.40;;;6.88;;
37593;SDS011;23441;50.856;6.076;2023-07-09T04:51:14;10.52;;;6.65;;
37593;SDS011;23441;50.856;6.076;2023-07-09T04:53:40;10.05;;;6.90;;
37593;SDS011;23441;50.856;6.076;2023-07-09T04:56:07;10.30;;;6.88;;
37593;SDS011;23441;50.856;6.076;2023-07-09T04:58:34;10.18;;;7.07;;
37593;SDS011;23441;50.856;6.076;2023-07-09T05:01:00;9.63;;;6.20;;
37593;SDS011;23441;50.856;6.076;2023-07-09T05:03:26;10.13;;;6.57;;
37593;SDS011;23441;50.856;6.076;2023-07-09T05:05:51;11.48;;;6.75;;
37593;SDS011;23441;50.856;6.076;2023-07-09T05:08:17;9.95;;;6.50;;
37593;SDS011;23441;50.856;6.076;2023-07-09T05:13:10;11.82;;;6.47;;
37593;SDS011;23441;50.856;6.076;2023-07-09T05:15:39;10.80;;;6.35;;
37593;SDS011;23441;50.856;6.076;2023-07-09T05:18:06;11.73;;;6.78;;
37593;SDS011;23441;50.856;6.076;2023-07-09T05:20:33;8.48;;;6.07;;
37593;SDS011;23441;50.856;6.076;2023-07-09T05:22:59;10.80;;;6.40;;
37593;SDS011;23441;50.856;6.076;2023-07-09T05:25:25;9.60;;;6.32;;
37593;SDS011;23441;50.856;6.076;2023-07-09T05:27:51;7.97;;;5.60;;
37593;SDS011;23441;50.856;6.076;2023-07-09T05:30:17;7.35;;;5.60;;
37593;SDS011;23441;50.856;6.076;2023-07-09T05:32:43;8.25;;;5.63;;
37593;SDS011;23441;50.856;6.076;2023-07-09T05:35:09;9.63;;;5.90;;
37593;SDS011;23441;50.856;6.076;2023-07-09T05:37:38;8.77;;;5.93;;
37593;SDS011;23441;50.856;6.076;2023-07-09T05:40:04;8.32;;;5.20;;
37593;SDS011;23441;50.856;6.076;2023-07-09T05:42:31;7.10;;;5.60;;
37593;SDS011;23441;50.856;6.076;2023-07-09T05:44:57;9.48;;;5.13;;
37593;SDS011;23441;50.856;6.076;2023-07-09T05:47:24;9.18;;;5.38;;
37593;SDS011;23441;50.856;6.076;2023-07-09T05:49:49;10.88;;;5.60;;
37593;SDS011;23441;50.856;6.076;2023-07-09T05:52:20;10.43;;;5.70;;
37593;SDS011;23441;50.856;6.076;2023-07-09T05:54:50;9.30;;;5.20;;
37593;SDS011;23441;50.856;6.076;2023-07-09T05:57:17;9.90;;;5.55;;
37593;SDS011;23441;50.856;6.076;2023-07-09T05:59:42;6.97;;;4.75;;
37593;SDS011;23441;50.856;6.076;2023-07-09T06:02:11;8.52;;;5.25;;
37593;SDS011;23441;50.856;6.076;2023-07-09T06:04:42;7.25;;;5.10;;
37593;SDS011;23441;50.856;6.076;2023-07-09T06:07:08;8.50;;;4.45;;
37593;SDS011;23441;50.856;6.076;2023-07-09T06:09:34;10.10;;;5.13;;
37593;SDS011;23441;50.856;6.076;2023-07-09T06:12:01;9.70;;;4.82;;
37593;SDS011;23441;50.856;6.076;2023-07-09T06:14:28;7.60;;;4.22;;
37593;SDS011;23441;50.856;6.076;2023-07-09T06:16:54;7.80;;;4.57;;
37593;SDS011;23441;50.856;6.076;2023-07-09T06:19:19;6.93;;;4.70;;
37593;SDS011;23441;50.856;6.076;2023-07-09T06:21:45;8.52;;;4.18;;
37593;SDS011;23441;50.856;6.076;2023-07-09T06:24:11;6.20;;;4.43;;
37593;SDS011;23441;50.856;6.076;2023-07-09T06:26:36;8.10;;;4.40;;
37593;SDS011;23441;50.856;6.076;2023-07-09T06:29:02;7.55;;;4.88;;
37593;SDS011;23441;50.856;6.076;2023-07-09T06:31:28;6.78;;;4.60;;
37593;SDS011;23441;50.856;6.076;2023-07-09T06:33:54;5.97;;;4.18;;
37593;SDS011;23441;50.856;6.076;2023-07-09T06:36:19;7.05;;;4.30;;
37593;SDS011;23441;50.856;6.076;2023-07-09T06:38:45;8.10;;;4.55;;
37593;SDS011;23441;50.856;6.076;2023-07-09T06:41:11;5.35;;;3.97;;
37593;SDS011;23441;50.856;6.076;2023-07-09T06:43:41;4.85;;;3.90;;
37593;SDS011;23441;50.856;6.076;2023-07-09T06:46:07;7.90;;;4.38;;
37593;SDS011;23441;50.856;6.076;2023-07-09T06:48:36;7.20;;;3.97;;
37593;SDS011;23441;50.856;6.076;2023-07-09T06:51:01;7.35;;;4.47;;
37593;SDS011;23441;50.856;6.076;2023-07-09T06:53:28;5.13;;;4.03;;
37593;SDS011;23441;50.856;6.076;2023-07-09T06:55:54;7.97;;;4.10;;
37593;SDS011;23441;50.856;6.076;2023-07-09T06:58:23;6.93;;;4.03;;
37593;SDS011;23441;50.856;6.076;2023-07-09T07:00:50;5.93;;;3.67;;
37593;SDS011;23441;50.856;6.076;2023-07-09T07:03:16;5.60;;;3.97;;
37593;SDS011;23441;50.856;6.076;2023-07-09T07:05:46;6.97;;;3.53;;
37593;SDS011;23441;50.856;6.076;2023-07-09T07:08:14;8.38;;;4.18;;
37593;SDS011;23441;50.856;6.076;2023-07-09T07:10:42;7.85;;;4.10;;
37593;SDS011;23441;50.856;6.076;2023-07-09T07:13:09;6.90;;;4.25;;
37593;SDS011;23441;50.856;6.076;2023-07-09T07:15:37;7.85;;;3.80;;
37593;SDS011;23441;50.856;6.076;2023-07-09T07:18:03;7.03;;;3.78;;
37593;SDS011;23441;50.856;6.076;2023-07-09T07:20:29;6.90;;;3.88;;
37593;SDS011;23441;50.856;6.076;2023-07-09T07:22:55;7.90;;;4.05;;
37593;SDS011;23441;50.856;6.076;2023-07-09T07:25:22;6.00;;;3.88;;
37593;SDS011;23441;50.856;6.076;2023-07-09T07:27:48;7.13;;;3.67;;
37593;SDS011;23441;50.856;6.076;2023-07-09T07:30:14;6.22;;;3.90;;
37593;SDS011;23441;50.856;6.076;2023-07-09T07:32:46;6.57;;;4.00;;
37593;SDS011;23441;50.856;6.076;2023-07-09T07:35:12;6.32;;;4.25;;
37593;SDS011;23441;50.856;6.076;2023-07-09T07:37:41;6.07;;;3.83;;
37593;SDS011;23441;50.856;6.076;2023-07-09T07:40:08;6.25;;;3.65;;
37593;SDS011;23441;50.856;6.076;2023-07-09T07:42:34;5.20;;;3.55;;
37593;SDS011;23441;50.856;6.076;2023-07-09T07:45:00;3.55;;;3.03;;
37593;SDS011;23441;50.856;6.076;2023-07-09T07:47:26;6.28;;;3.50;;
37593;SDS011;23441;50.856;6.076;2023-07-09T07:49:52;6.30;;;3.80;;
37593;SDS011;23441;50.856;6.076;2023-07-09T07:52:19;9.65;;;3.90;;
37593;SDS011;23441;50.856;6.076;2023-07-09T07:54:44;4.80;;;3.53;;
37593;SDS011;23441;50.856;6.076;2023-07-09T07:57:10;7.00;;;3.33;;
37593;SDS011;23441;50.856;6.076;2023-07-09T07:59:36;5.07;;;3.38;;
37593;SDS011;23441;50.856;6.076;2023-07-09T08:02:03;4.95;;;3.30;;
37593;SDS011;23441;50.856;6.076;2023-07-09T08:04:30;7.88;;;3.40;;
37593;SDS011;23441;50.856;6.076;2023-07-09T08:06:56;5.47;;;3.47;;
37593;SDS011;23441;50.856;6.076;2023-07-09T08:09:22;5.65;;;4.20;;
37593;SDS011;23441;50.856;6.076;2023-07-09T08:11:47;4.57;;;3.45;;
37593;SDS011;23441;50.856;6.076;2023-07-09T08:14:14;5.05;;;3.38;;
37593;SDS011;23441;50.856;6.076;2023-07-09T08:16:40;4.90;;;3.13;;
37593;SDS011;23441;50.856;6.076;2023-07-09T08:19:06;6.07;;;3.10;;
37593;SDS011;23441;50.856;6.076;2023-07-09T08:21:32;5.50;;;3.33;;
37593;SDS011;23441;50.856;6.076;2023-07-09T08:23:58;4.07;;;3.15;;
37593;SDS011;23441;50.856;6.076;2023-07-09T08:26:23;5.32;;;3.50;;
37593;SDS011;23441;50.856;6.076;2023-07-09T08:28:49;8.73;;;3.80;;
37593;SDS011;23441;50.856;6.076;2023-07-09T08:31:16;7.32;;;3.67;;
37593;SDS011;23441;50.856;6.076;2023-07-09T08:33:41;5.40;;;3.20;;
37593;SDS011;23441;50.856;6.076;2023-07-09T08:36:07;6.75;;;3.40;;
37593;SDS011;23441;50.856;6.076;2023-07-09T08:38:33;7.43;;;3.35;;
37593;SDS011;23441;50.856;6.076;2023-07-09T08:41:00;5.85;;;3.45;;
37593;SDS011;23441;50.856;6.076;2023-07-09T08:43:43;5.50;;;3.50;;
37593;SDS011;23441;50.856;6.076;2023-07-09T08:46:36;5.95;;;3.70;;
37593;SDS011;23441;50.856;6.076;2023-07-09T08:49:37;5.13;;;3.33;;
37593;SDS011;23441;50.856;6.076;2023-07-09T08:52:42;8.15;;;3.50;;
37593;SDS011;23441;50.856;6.076;2023-07-09T08:55:06;7.47;;;3.60;;
37593;SDS011;23441;50.856;6.076;2023-07-09T08:57:39;7.00;;;3.45;;
37593;SDS011;23441;50.856;6.076;2023-07-09T09:00:17;7.07;;;3.55;;
37593;SDS011;23441;50.856;6.076;2023-07-09T09:02:54;6.32;;;3.40;;
37593;SDS011;23441;50.856;6.076;2023-07-09T09:05:23;8.00;;;3.53;;
37593;SDS011;23441;50.856;6.076;2023-07-09T09:07:56;13.85;;;8.70;;
37593;SDS011;23441;50.856;6.076;2023-07-09T09:13:20;5.78;;;3.70;;
37593;SDS011;23441;50.856;6.076;2023-07-09T09:15:50;9.50;;;6.38;;
37593;SDS011;23441;50.856;6.076;2023-07-09T09:18:24;7.47;;;4.75;;
37593;SDS011;23441;50.856;6.076;2023-07-09T09:20:54;5.57;;;3.40;;
37593;SDS011;23441;50.856;6.076;2023-07-09T09:23:29;4.57;;;3.83;;
37593;SDS011;23441;50.856;6.076;2023-07-09T09:26:03;6.50;;;3.28;;
37593;SDS011;23441;50.856;6.076;2023-07-09T09:28:39;6.50;;;3.42;;
37593;SDS011;23441;50.856;6.076;2023-07-09T09:31:04;5.85;;;3.50;;
37593;SDS011;23441;50.856;6.076;2023-07-09T09:33:41;4.60;;;3.63;;
37593;SDS011;23441;50.856;6.076;2023-07-09T09:36:25;6.60;;;3.70;;
37593;SDS011;23441;50.856;6.076;2023-07-09T09:38:51;5.65;;;3.53;;
37593;SDS011;23441;50.856;6.076;2023-07-09T09:41:22;3.95;;;3.10;;
37593;SDS011;23441;50.856;6.076;2023-07-09T09:43:51;5.55;;;3.20;;
37593;SDS011;23441;50.856;6.076;2023-07-09T09:46:22;6.20;;;3.17;;
37593;SDS011;23441;50.856;6.076;2023-07-09T09:48:50;7.82;;;3.10;;
37593;SDS011;23441;50.856;6.076;2023-07-09T09:51:19;7.95;;;3.53;;
37593;SDS011;23441;50.856;6.076;2023-07-09T09:53:49;5.82;;;3.10;;
37593;SDS011;23441;50.856;6.076;2023-07-09T09:56:17;5.13;;;3.22;;
37593;SDS011;23441;50.856;6.076;2023-07-09T09:58:59;5.07;;;3.42;;
37593;SDS011;23441;50.856;6.076;2023-07-09T10:01:29;6.65;;;2.95;;
37593;SDS011;23441;50.856;6.076;2023-07-09T10:03:58;6.30;;;3.35;;
37593;SDS011;23441;50.856;6.076;2023-07-09T10:09:10;5.35;;;3.20;;
37593;SDS011;23441;50.856;6.076;2023-07-09T10:16:55;6.50;;;3.45;;
37593;SDS011;23441;50.856;6.076;2023-07-09T10:22:08;6.88;;;3.40;;
37593;SDS011;23441;50.856;6.076;2023-07-09T10:24:44;5.88;;;3.38;;
37593;SDS011;23441;50.856;6.076;2023-07-09T10:35:05;5.32;;;3.20;;
37593;SDS011;23441;50.856;6.076;2023-07-09T10:40:46;4.60;;;3.17;;
37593;SDS011;23441;50.856;6.076;2023-07-09T10:43:17;5.15;;;3.20;;
37593;SDS011;23441;50.856;6.076;2023-07-09T10:45:48;6.05;;;3.08;;
37593;SDS011;23441;50.856;6.076;2023-07-09T10:48:33;7.57;;;3.13;;
37593;SDS011;23441;50.856;6.076;2023-07-09T10:51:02;5.03;;;3.05;;
37593;SDS011;23441;50.856;6.076;2023-07-09T10:53:29;5.55;;;3.10;;
37593;SDS011;23441;50.856;6.076;2023-07-09T10:56:08;6.90;;;3.25;;
37593;SDS011;23441;50.856;6.076;2023-07-09T11:01:16;3.55;;;2.85;;
37593;SDS011;23441;50.856;6.076;2023-07-09T11:03:51;4.72;;;3.03;;
37593;SDS011;23441;50.856;6.076;2023-07-09T11:06:23;8.82;;;3.08;;
37593;SDS011;23441;50.856;6.076;2023-07-09T11:08:51;8.05;;;3.30;;
37593;SDS011;23441;50.856;6.076;2023-07-09T11:11:40;6.68;;;3.13;;
37593;SDS011;23441;50.856;6.076;2023-07-09T11:14:21;4.13;;;3.20;;
37593;SDS011;23441;50.856;6.076;2023-07-09T11:16:51;6.90;;;3.40;;
37593;SDS011;23441;50.856;6.076;2023-07-09T11:19:20;6.07;;;3.40;;
37593;SDS011;23441;50.856;6.076;2023-07-09T11:24:31;5.00;;;3.20;;
37593;SDS011;23441;50.856;6.076;2023-07-09T11:26:58;7.53;;;3.40;;
37593;SDS011;23441;50.856;6.076;2023-07-09T11:29:26;6.63;;;3.30;;
37593;SDS011;23441;50.856;6.076;2023-07-09T11:31:53;4.90;;;3.08;;
37593;SDS011;23441;50.856;6.076;2023-07-09T11:34:19;4.25;;;3.03;;
37593;SDS011;23441;50.856;6.076;2023-07-09T11:39:27;4.97;;;3.40;;
37593;SDS011;23441;50.856;6.076;2023-07-09T11:44:54;5.90;;;3.50;;
37593;SDS011;23441;50.856;6.076;2023-07-09T11:50:28;5.22;;;3.28;;
37593;SDS011;23441;50.856;6.076;2023-07-09T11:55:45;7.10;;;3.58;;
37593;SDS011;23441;50.856;6.076;2023-07-09T11:58:15;6.03;;;3.63;;
37593;SDS011;23441;50.856;6.076;2023-07-09T12:00:49;4.60;;;3.50;;
37593;SDS011;23441;50.856;6.076;2023-07-09T12:03:25;7.13;;;3.75;;
37593;SDS011;23441;50.856;6.076;2023-07-09T12:05:55;8.15;;;3.90;;
37593;SDS011;23441;50.856;6.076;2023-07-09T12:08:29;6.20;;;3.42;;
37593;SDS011;23441;50.856;6.076;2023-07-09T12:10:59;7.72;;;3.58;;
37593;SDS011;23441;50.856;6.076;2023-07-09T12:13:25;5.55;;;3.75;;
37593;SDS011;23441;50.856;6.076;2023-07-09T12:15:51;5.32;;;3.60;;
37593;SDS011;23441;50.856;6.076;2023-07-09T12:18:16;5.20;;;3.90;;
37593;SDS011;23441;50.856;6.076;2023-07-09T12:20:47;5.30;;;3.80;;
37593;SDS011;23441;50.856;6.076;2023-07-09T12:23:19;7.13;;;3.72;;
37593;SDS011;23441;50.856;6.076;2023-07-09T12:25:52;7.50;;;4.25;;
37593;SDS011;23441;50.856;6.076;2023-07-09T12:28:19;12.32;;;4.55;;
37593;SDS011;23441;50.856;6.076;2023-07-09T12:30:50;10.40;;;4.57;;
37593;SDS011;23441;50.856;6.076;2023-07-09T12:33:21;14.55;;;5.75;;
37593;SDS011;23441;50.856;6.076;2023-07-09T12:35:53;10.20;;;5.00;;
37593;SDS011;23441;50.856;6.076;2023-07-09T12:38:25;13.05;;;4.97;;
37593;SDS011;23441;50.856;6.076;2023-07-09T12:40:53;15.25;;;5.53;;
37593;SDS011;23441;50.856;6.076;2023-07-09T12:43:27;10.30;;;4.30;;
37593;SDS011;23441;50.856;6.076;2023-07-09T12:45:56;9.35;;;5.20;;
37593;SDS011;23441;50.856;6.076;2023-07-09T12:48:24;10.55;;;4.72;;
37593;SDS011;23441;50.856;6.076;2023-07-09T12:50:55;7.82;;;5.20;;
37593;SDS011;23441;50.856;6.076;2023-07-09T12:53:23;7.13;;;4.63;;
37593;SDS011;23441;50.856;6.076;2023-07-09T12:55:57;9.77;;;4.50;;
37593;SDS011;23441;50.856;6.076;2023-07-09T12:58:25;9.57;;;4.65;;
37593;SDS011;23441;50.856;6.076;2023-07-09T13:00:55;8.02;;;4.53;;
37593;SDS011;23441;50.856;6.076;2023-07-09T13:03:25;10.00;;;4.47;;
37593;SDS011;23441;50.856;6.076;2023-07-09T13:05:57;6.93;;;4.05;;
37593;SDS011;23441;50.856;6.076;2023-07-09T13:08:26;10.52;;;4.63;;
37593;SDS011;23441;50.856;6.076;2023-07-09T13:10:54;9.10;;;4.95;;
37593;SDS011;23441;50.856;6.076;2023-07-09T13:13:20;6.30;;;3.90;;
37593;SDS011;23441;50.856;6.076;2023-07-09T13:15:52;8.63;;;4.72;;
37593;SDS011;23441;50.856;6.076;2023-07-09T13:18:23;8.65;;;4.38;;
37593;SDS011;23441;50.856;6.076;2023-07-09T13:20:50;7.15;;;4.38;;
37593;SDS011;23441;50.856;6.076;2023-07-09T13:23:24;14.15;;;5.00;;
37593;SDS011;23441;50.856;6.076;2023-07-09T13:25:51;9.15;;;4.53;;
37593;SDS011;23441;50.856;6.076;2023-07-09T13:28:19;22.35;;;6.50;;
37593;SDS011;23441;50.856;6.076;2023-07-09T13:30:47;11.73;;;5.10;;
37593;SDS011;23441;50.856;6.076;2023-07-09T13:33:16;14.60;;;5.70;;
37593;SDS011;23441;50.856;6.076;2023-07-09T13:35:43;10.23;;;5.38;;
37593;SDS011;23441;50.856;6.076;2023-07-09T13:38:13;10.30;;;5.32;;
37593;SDS011;23441;50.856;6.076;2023-07-09T13:40:44;10.63;;;6.30;;
37593;SDS011;23441;50.856;6.076;2023-07-09T13:43:15;11.63;;;6.10;;
37593;SDS011;23441;50.856;6.076;2023-07-09T13:45:45;12.38;;;5.65;;
37593;SDS011;23441;50.856;6.076;2023-07-09T13:48:17;8.73;;;5.55;;
37593;SDS011;23441;50.856;6.076;2023-07-09T13:50:49;10.93;;;5.45;;
37593;SDS011;23441;50.856;6.076;2023-07-09T13:53:20;11.02;;;5.07;;
37593;SDS011;23441;50.856;6.076;2023-07-09T13:55:48;20.20;;;6.85;;
37593;SDS011;23441;50.856;6.076;2023-07-09T13:58:16;26.48;;;10.80;;
37593;SDS011;23441;50.856;6.076;2023-07-09T14:00:44;24.95;;;17.92;;
37593;SDS011;23441;50.856;6.076;2023-07-09T14:03:19;31.10;;;18.73;;
37593;SDS011;23441;50.856;6.076;2023-07-09T14:05:47;34.25;;;20.52;;
37593;SDS011;23441;50.856;6.076;2023-07-09T14:08:14;38.00;;;21.33;;
37593;SDS011;23441;50.856;6.076;2023-07-09T14:10:41;30.35;;;21.33;;
37593;SDS011;23441;50.856;6.076;2023-07-09T14:13:09;45.15;;;28.05;;
37593;SDS011;23441;50.856;6.076;2023-07-09T14:15:39;45.97;;;32.38;;
37593;SDS011;23441;50.856;6.076;2023-07-09T14:18:10;43.92;;;33.42;;
37593;SDS011;23441;50.856;6.076;2023-07-09T14:20:38;42.05;;;29.48;;
37593;SDS011;23441;50.856;6.076;2023-07-09T14:23:04;26.73;;;21.75;;
37593;SDS011;23441;50.856;6.076;2023-07-09T14:25:30;26.45;;;16.98;;
37593;SDS011;23441;50.856;6.076;2023-07-09T14:27:55;24.70;;;18.90;;
37593;SDS011;23441;50.856;6.076;2023-07-09T14:30:23;24.58;;;19.25;;
37593;SDS011;23441;50.856;6.076;2023-07-09T14:32:50;24.40;;;18.23;;
37593;SDS011;23441;50.856;6.076;2023-07-09T14:35:18;24.35;;;18.13;;
37593;SDS011;23441;50.856;6.076;2023-07-09T14:37:49;25.00;;;18.75;;
37593;SDS011;23441;50.856;6.076;2023-07-09T14:40:17;22.48;;;17.90;;
37593;SDS011;23441;50.856;6.076;2023-07-09T14:42:45;22.30;;;18.20;;
37593;SDS011;23441;50.856;6.076;2023-07-09T14:45:24;24.02;;;18.48;;
37593;SDS011;23441;50.856;6.076;2023-07-09T14:47:53;24.98;;;18.95;;
37593;SDS011;23441;50.856;6.076;2023-07-09T14:50:20;25.15;;;19.77;;
37593;SDS011;23441;50.856;6.076;2023-07-09T14:52:48;28.00;;;20.75;;
37593;SDS011;23441;50.856;6.076;2023-07-09T14:55:14;23.95;;;19.25;;
37593;SDS011;23441;50.856;6.076;2023-07-09T14:57:45;22.08;;;17.63;;
37593;SDS011;23441;50.856;6.076;2023-07-09T15:00:16;23.75;;;18.50;;
37593;SDS011;23441;50.856;6.076;2023-07-09T15:02:43;25.92;;;18.75;;
37593;SDS011;23441;50.856;6.076;2023-07-09T15:05:17;24.55;;;18.35;;
37593;SDS011;23441;50.856;6.076;2023-07-09T15:07:47;23.48;;;18.27;;
37593;SDS011;23441;50.856;6.076;2023-07-09T15:10:16;20.25;;;16.58;;
37593;SDS011;23441;50.856;6.076;2023-07-09T15:12:47;22.05;;;16.42;;
37593;SDS011;23441;50.856;6.076;2023-07-09T15:15:26;25.02;;;18.13;;
37593;SDS011;23441;50.856;6.076;2023-07-09T15:17:54;24.08;;;17.25;;
37593;SDS011;23441;50.856;6.076;2023-07-09T15:20:22;23.02;;;16.60;;
37593;SDS011;23441;50.856;6.076;2023-07-09T15:22:50;19.65;;;15.77;;
37593;SDS011;23441;50.856;6.076;2023-07-09T15:25:21;20.95;;;16.25;;
37593;SDS011;23441;50.856;6.076;2023-07-09T15:27:51;19.60;;;14.40;;
37593;SDS011;23441;50.856;6.076;2023-07-09T15:32:45;17.10;;;12.98;;
37593;SDS011;23441;50.856;6.076;2023-07-09T15:35:12;23.90;;;16.10;;
37593;SDS011;23441;50.856;6.076;2023-07-09T15:37:39;17.85;;;13.88;;